Time;durP1;ratioP1;P1;durP2;ratioP2;P2;SDS_P1;SDS_P2;PMS_P1;PMS_P2;Temp;Humidity;BMP_temperature;BMP_pressure;BME280_temperature;BME280_humidity;BME280_pressure;Samples;Min_cycle;Max_cycle;Signal;HPM_P1;HPM_P2
2022/08/06 00:00:00;;;;;;;4.63;3.38;;;;;;;21.92;55.77;99041.44;4925404;29;20110;-93
2022/08/06 00:02:27;;;;;;;4.43;3.17;;;;;;;21.81;55.32;99032.94;4924589;29;20020;-93
2022/08/06 00:04:52;;;;;;;4.43;3.42;;;;;;;21.73;55.94;99026.47;4892910;29;20090;-93
2022/08/06 00:07:18;;;;;;;6.13;3.28;;;;;;;21.72;55.91;99030.34;4907830;29;20031;-93
2022/08/06 00:09:44;;;;;;;6.15;3.35;;;;;;;21.65;56.19;99027.41;4893095;29;20398;-94
2022/08/06 00:12:09;;;;;;;5.20;3.50;;;;;;;21.62;56.37;99027.31;4893066;29;20457;-92
2022/08/06 00:14:36;;;;;;;3.72;2.85;;;;;;;21.65;56.48;99037.59;4923303;29;20098;-93
2022/08/06 00:17:05;;;;;;;4.72;2.95;;;;;;;21.67;56.13;99043.53;4908264;29;20031;-92
2022/08/06 00:19:31;;;;;;;5.10;3.15;;;;;;;21.47;56.58;99035.16;4925567;29;20023;-93
2022/08/06 00:21:56;;;;;;;4.38;2.75;;;;;;;21.41;56.86;99033.78;4908642;29;20032;-93
2022/08/06 00:24:22;;;;;;;8.10;3.35;;;;;;;21.34;57.26;99039.84;4923943;29;20067;-93
2022/08/06 00:26:47;;;;;;;3.90;3.20;;;;;;;21.24;57.29;99023.91;4907492;29;20047;-93
2022/08/06 00:29:13;;;;;;;5.88;3.38;;;;;;;21.19;57.47;99021.44;4892513;29;20024;-92
2022/08/06 00:31:39;;;;;;;4.53;3.65;;;;;;;21.21;58.09;99038.31;4908357;29;20225;-94
2022/08/06 00:34:05;;;;;;;4.82;3.53;;;;;;;21.20;58.16;99039.44;4923439;29;20391;-93
2022/08/06 00:36:31;;;;;;;5.18;3.50;;;;;;;21.17;57.89;99043.69;4908396;29;20038;-94
2022/08/06 00:38:58;;;;;;;5.68;3.65;;;;;;;21.20;58.32;99053.16;4908685;29;20414;-92
2022/08/06 00:41:23;;;;;;;6.30;4.85;;;;;;;21.18;58.07;99048.00;4925020;29;20034;-92
2022/08/06 00:43:49;;;;;;;9.73;4.63;;;;;;;21.18;58.19;99064.44;4923803;29;20211;-91
2022/08/06 00:46:16;;;;;;;7.20;4.57;;;;;;;21.16;58.33;99046.75;4908271;29;20466;-92
2022/08/06 00:48:42;;;;;;;7.53;4.53;;;;;;;21.13;58.35;99045.53;4909952;29;20024;-93
2022/08/06 00:51:07;;;;;;;6.20;4.20;;;;;;;21.08;58.18;99039.50;4908551;29;20070;-93
2022/08/06 00:53:33;;;;;;;8.27;5.10;;;;;;;21.12;58.38;99045.88;4906743;29;20027;-92
2022/08/06 00:56:00;;;;;;;6.65;4.10;;;;;;;21.09;58.43;99054.78;4892347;29;20133;-91
2022/08/06 00:58:26;;;;;;;6.30;4.28;;;;;;;20.99;58.86;99045.91;4904894;29;20032;-91
2022/08/06 01:00:51;;;;;;;7.05;4.60;;;;;;;21.08;58.72;99059.44;4904357;29;20490;-91
2022/08/06 01:03:17;;;;;;;10.50;4.65;;;;;;;21.13;58.70;99058.44;4904759;29;20406;-91
2022/08/06 01:05:43;;;;;;;4.68;4.18;;;;;;;21.09;58.75;99049.31;4889507;29;20103;-92
2022/08/06 01:08:10;;;;;;;8.88;4.72;;;;;;;21.01;58.90;99044.78;4889456;29;20031;-91
2022/08/06 01:10:36;;;;;;;5.70;4.35;;;;;;;21.13;58.61;99064.69;4873362;29;20032;-92
2022/08/06 01:13:01;;;;;;;7.18;4.95;;;;;;;21.04;58.23;99064.00;4919452;29;20033;-92
2022/08/06 01:15:27;;;;;;;6.25;4.32;;;;;;;20.94;58.80;99039.88;4888985;29;20036;-93
2022/08/06 01:17:59;;;;;;;8.20;4.47;;;;;;;21.08;59.15;99067.66;4890714;29;20035;-91
2022/08/06 01:20:36;;;;;;;7.00;4.47;;;;;;;21.01;59.29;99067.47;4888795;29;20031;-92
2022/08/06 01:23:28;;;;;;;6.88;4.28;;;;;;;20.98;58.89;99063.47;4907272;29;20131;-93
2022/08/06 01:26:18;;;;;;;8.15;4.40;;;;;;;20.95;59.46;99068.84;4903703;29;20532;-91
2022/08/06 01:28:50;;;;;;;7.20;4.18;;;;;;;20.78;59.18;99045.28;4921306;29;20480;-92
2022/08/06 01:31:48;;;;;;;6.68;3.80;;;;;;;20.80;58.99;99048.47;4904392;29;20056;-91
2022/08/06 01:34:18;;;;;;;5.05;3.78;;;;;;;20.85;58.71;99069.31;4910452;29;20062;-91
2022/08/06 01:36:46;;;;;;;4.57;2.95;;;;;;;21.02;57.85;99073.72;4888404;29;20027;-92
2022/08/06 01:39:12;;;;;;;3.35;3.03;;;;;;;21.11;56.97;99061.50;4900536;29;20115;-93
2022/08/06 01:41:43;;;;;;;4.38;2.97;;;;;;;21.31;56.07;99053.44;4904504;29;20032;-91
2022/08/06 01:44:10;;;;;;;3.90;2.65;;;;;;;21.12;56.09;99034.91;4888675;29;20119;-92
2022/08/06 01:46:37;;;;;;;3.42;2.53;;;;;;;21.12;57.39;99032.97;4888162;29;20047;-92
2022/08/06 01:49:03;;;;;;;4.43;2.95;;;;;;;21.23;57.28;99051.66;4903675;29;20038;-91
2022/08/06 01:51:29;;;;;;;7.82;3.35;;;;;;;21.17;57.66;99040.16;4887624;29;20157;-93
2022/08/06 01:53:54;;;;;;;6.28;3.00;;;;;;;21.12;57.98;99052.13;4897421;29;20025;-91
2022/08/06 01:56:20;;;;;;;4.40;2.97;;;;;;;21.07;58.26;99052.38;4902671;29;20028;-92
2022/08/06 01:58:45;;;;;;;4.07;3.15;;;;;;;21.04;58.57;99055.00;4899331;29;20035;-92
2022/08/06 02:01:15;;;;;;;5.88;3.20;;;;;;;20.97;58.66;99058.34;4922011;29;20035;-92
2022/08/06 02:03:49;;;;;;;4.53;3.53;;;;;;;20.97;58.71;99063.81;4906249;29;20038;-92
2022/08/06 02:06:26;;;;;;;4.55;3.53;;;;;;;20.83;59.46;99046.97;4890969;29;20114;-92
2022/08/06 02:08:52;;;;;;;5.28;3.67;;;;;;;20.92;59.41;99062.13;4887379;29;20024;-92
2022/08/06 02:11:17;;;;;;;5.35;3.70;;;;;;;20.82;59.26;99051.66;4871999;29;20563;-92
2022/08/06 02:13:43;;;;;;;7.07;4.13;;;;;;;20.72;59.25;99035.69;4880685;29;20028;-93
2022/08/06 02:16:09;;;;;;;5.65;4.32;;;;;;;20.76;58.81;99050.28;4902513;29;20039;-92
2022/08/06 02:18:37;;;;;;;8.75;4.78;;;;;;;20.90;59.32;99058.16;4913576;29;20028;-92
2022/08/06 02:21:05;;;;;;;5.20;4.20;;;;;;;20.84;60.01;99051.31;4890472;29;20036;-92
2022/08/06 02:23:31;;;;;;;6.30;4.30;;;;;;;20.87;59.11;99054.13;4890225;29;20546;-92
2022/08/06 02:25:56;;;;;;;8.80;5.18;;;;;;;20.97;58.32;99053.66;4890035;29;20035;-92
2022/08/06 02:28:23;;;;;;;7.28;4.80;;;;;;;20.84;58.94;99037.63;4905378;29;20035;-92
2022/08/06 02:30:49;;;;;;;6.15;4.82;;;;;;;20.87;58.92;99045.13;4889788;29;20031;-91
2022/08/06 02:33:15;;;;;;;8.57;5.20;;;;;;;20.82;58.39;99042.66;4907815;29;20023;-92
2022/08/06 02:35:51;;;;;;;6.00;4.47;;;;;;;20.95;58.91;99058.69;4902529;29;20040;-93
2022/08/06 02:38:28;;;;;;;8.65;4.72;;;;;;;20.92;58.58;99056.66;4926690;29;20028;-91
2022/08/06 02:40:57;;;;;;;7.00;4.57;;;;;;;20.88;59.13;99041.28;4922879;29;20114;-92
2022/08/06 02:43:27;;;;;;;10.20;4.65;;;;;;;20.90;58.82;99039.78;4906006;29;20102;-92
2022/08/06 02:45:55;;;;;;;7.55;4.82;;;;;;;20.86;58.92;99047.09;4906618;29;20063;-92
2022/08/06 02:48:26;;;;;;;6.68;4.65;;;;;;;20.88;58.83;99053.00;4905379;29;20483;-92
2022/08/06 02:50:52;;;;;;;6.90;4.93;;;;;;;20.84;59.15;99037.63;4906377;29;20054;-91
2022/08/06 02:53:19;;;;;;;7.45;4.80;;;;;;;20.78;58.89;99034.31;4902480;29;20786;-92
2022/08/06 02:55:47;;;;;;;8.75;5.07;;;;;;;20.78;59.22;99034.31;4886734;29;20031;-92
2022/08/06 02:58:34;;;;;;;8.43;5.10;;;;;;;20.80;59.09;99029.31;4918036;29;20032;-92
2022/08/06 03:00:59;;;;;;;7.07;5.07;;;;;;;20.83;58.81;99034.06;4890090;29;20036;-92
2022/08/06 03:03:25;;;;;;;11.02;5.88;;;;;;;20.86;59.04;99033.41;4905742;29;20524;-92
2022/08/06 03:05:51;;;;;;;6.72;5.07;;;;;;;20.89;59.10;99045.59;4905811;29;20058;-92
2022/08/06 03:08:18;;;;;;;11.98;5.95;;;;;;;20.82;58.75;99039.91;4906252;29;20071;-90
2022/08/06 03:10:44;;;;;;;9.15;6.63;;;;;;;20.81;59.07;99030.88;4906201;29;20027;-92
2022/08/06 03:13:10;;;;;;;11.40;5.75;;;;;;;20.86;58.42;99027.91;4892036;29;20035;-90
2022/08/06 03:15:36;;;;;;;8.10;4.20;;;;;;;21.06;57.63;99056.25;4917428;29;20108;-92
2022/08/06 03:18:03;;;;;;;4.97;4.35;;;;;;;20.97;57.63;99034.50;4903136;29;20044;-91
2022/08/06 03:20:28;;;;;;;6.78;4.40;;;;;;;20.90;58.31;99026.09;4901762;29;20036;-90
2022/08/06 03:22:56;;;;;;;6.53;4.68;;;;;;;21.03;58.28;99056.16;4892138;29;20031;-91
2022/08/06 03:25:22;;;;;;;5.45;4.20;;;;;;;20.87;58.77;99045.94;4890376;29;20078;-91
2022/08/06 03:27:47;;;;;;;5.22;4.05;;;;;;;20.82;58.80;99059.84;4903280;29;20032;-92
2022/08/06 03:30:17;;;;;;;5.18;3.83;;;;;;;20.83;59.27;99066.91;4901753;29;20096;-93
2022/08/06 03:32:42;;;;;;;5.40;4.28;;;;;;;20.75;58.95;99059.63;4917057;29;20024;-92
2022/08/06 03:35:08;;;;;;;7.47;4.43;;;;;;;20.68;59.41;99056.69;4886075;29;20392;-93
2022/08/06 03:37:34;;;;;;;10.73;6.88;;;;;;;20.70;59.16;99041.50;4904109;29;20035;-93
2022/08/06 03:40:00;;;;;;;12.05;5.80;;;;;;;20.74;59.26;99049.84;4889187;29;20028;-93
2022/08/06 03:42:25;;;;;;;9.63;5.72;;;;;;;20.69;59.11;99039.94;4904725;29;20060;-93
2022/08/06 03:44:51;;;;;;;7.95;5.20;;;;;;;20.88;59.10;99057.69;4904381;29;20036;-93
2022/08/06 03:47:31;;;;;;;7.45;4.93;;;;;;;20.86;59.33;99058.03;4889225;29;20035;-92
2022/08/06 03:50:05;;;;;;;6.75;4.72;;;;;;;20.83;58.96;99045.03;4904987;29;20035;-93
2022/08/06 03:52:31;;;;;;;4.95;4.15;;;;;;;20.91;58.40;99044.09;4904856;29;20509;-93
2022/08/06 03:55:03;;;;;;;7.22;4.07;;;;;;;20.89;58.24;99040.91;4889440;29;20494;-93
2022/08/06 03:57:32;;;;;;;11.63;4.10;;;;;;;21.04;58.35;99064.00;4905824;29;20034;-93
2022/08/06 04:00:00;;;;;;;6.70;4.10;;;;;;;21.05;57.77;99060.16;4904325;29;20040;-93
2022/08/06 04:02:48;;;;;;;7.00;4.18;;;;;;;21.08;57.76;99061.38;4889895;29;20036;-92
2022/08/06 04:05:19;;;;;;;6.80;4.07;;;;;;;21.10;57.36;99054.41;4889287;29;20032;-94
2022/08/06 04:07:46;;;;;;;5.63;4.00;;;;;;;21.19;57.83;99068.78;4921489;29;20024;-93
2022/08/06 04:10:12;;;;;;;7.65;4.10;;;;;;;21.22;56.18;99061.03;4888934;29;20077;-94
2022/08/06 04:12:37;;;;;;;5.38;3.17;;;;;;;21.43;56.15;99069.88;4904219;29;20030;-93
2022/08/06 04:15:04;;;;;;;3.63;2.80;;;;;;;21.54;55.11;99061.94;4889280;29;20035;-92
2022/08/06 04:17:30;;;;;;;3.80;3.03;;;;;;;21.73;54.86;99075.78;4888374;29;20061;-92
2022/08/06 04:19:55;;;;;;;5.57;2.90;;;;;;;21.86;54.67;99062.03;4905100;29;20024;-93
2022/08/06 04:22:21;;;;;;;4.50;3.17;;;;;;;22.00;54.19;99065.94;4903590;29;20167;-92
2022/08/06 04:24:47;;;;;;;5.05;2.97;;;;;;;21.90;55.06;99071.94;4888946;29;20048;-92
2022/08/06 04:27:12;;;;;;;7.90;3.40;;;;;;;21.91;55.39;99079.00;4890046;29;20023;-92
2022/08/06 04:29:39;;;;;;;4.15;3.40;;;;;;;21.91;55.73;99073.50;4923464;29;20032;-92
2022/08/06 04:32:05;;;;;;;6.40;3.50;;;;;;;21.86;55.53;99067.50;4907309;29;20079;-92
2022/08/06 04:34:31;;;;;;;4.95;3.60;;;;;;;22.08;55.52;99066.09;4922782;29;20065;-93
2022/08/06 04:36:58;;;;;;;6.75;3.58;;;;;;;22.03;55.54;99074.59;4892207;29;20038;-91
2022/08/06 04:39:24;;;;;;;8.20;3.30;;;;;;;22.07;55.31;99072.75;4888996;29;20483;-92
2022/08/06 04:41:49;;;;;;;4.90;3.15;;;;;;;22.05;55.60;99067.59;4873229;29;20032;-91
2022/08/06 04:44:14;;;;;;;4.85;3.10;;;;;;;22.10;55.28;99067.34;4892003;29;20039;-91
2022/08/06 04:46:40;;;;;;;6.78;3.05;;;;;;;22.14;55.67;99065.50;4905476;29;20067;-91
2022/08/06 04:49:05;;;;;;;4.22;3.00;;;;;;;22.19;55.15;99076.19;4884718;29;20032;-91
2022/08/06 04:51:31;;;;;;;3.50;3.15;;;;;;;22.22;54.94;99077.44;4889240;29;20043;-92
2022/08/06 04:53:58;;;;;;;4.05;3.13;;;;;;;22.31;55.11;99082.78;4903082;29;20024;-85
2022/08/06 04:56:24;;;;;;;6.57;3.47;;;;;;;22.24;54.42;99083.38;4903251;29;20118;-92
2022/08/06 04:58:49;;;;;;;5.00;3.42;;;;;;;22.13;54.81;99068.59;4922537;29;20028;-91
2022/08/06 05:01:15;;;;;;;5.70;3.28;;;;;;;22.25;54.71;99086.94;4888315;29;20024;-92
2022/08/06 05:03:40;;;;;;;8.75;3.60;;;;;;;22.24;55.23;99086.13;4916195;29;20050;-93
2022/08/06 05:06:13;;;;;;;7.10;3.08;;;;;;;22.32;54.68;99073.41;4891714;29;20047;-92
2022/08/06 05:08:39;;;;;;;6.63;3.58;;;;;;;22.37;53.93;99084.91;4907369;29;20035;-90
2022/08/06 05:11:13;;;;;;;5.78;3.08;;;;;;;22.36;54.37;99091.53;4891695;29;20041;-92
2022/08/06 05:13:39;;;;;;;5.38;3.00;;;;;;;22.47;53.59;99096.47;4895521;29;20116;-92
2022/08/06 05:16:08;;;;;;;4.38;3.35;;;;;;;22.50;53.57;99082.06;4919108;29;20024;-91
2022/08/06 05:18:36;;;;;;;8.75;5.15;;;;;;;22.65;54.10;99094.97;4887617;29;20123;-92
2022/08/06 05:21:02;;;;;;;6.05;3.70;;;;;;;22.73;54.33;99098.69;4903109;29;20087;-92
2022/08/06 05:23:32;;;;;;;5.05;3.75;;;;;;;22.74;53.70;99092.84;4893637;29;20032;-93
2022/08/06 05:25:57;;;;;;;9.88;3.60;;;;;;;22.93;53.63;99113.25;4887612;29;20120;-91
2022/08/06 05:28:23;;;;;;;7.85;3.78;;;;;;;22.91;53.24;99096.31;4906194;29;20446;-92
2022/08/06 05:30:49;;;;;;;5.90;4.10;;;;;;;23.06;52.91;99108.47;4890916;29;20517;-92
2022/08/06 05:33:25;;;;;;;10.48;3.60;;;;;;;22.99;52.71;99081.59;4890314;29;20103;-92
2022/08/06 05:35:51;;;;;;;8.68;4.10;;;;;;;23.13;52.48;99097.63;4922489;29;20031;-91
2022/08/06 05:38:16;;;;;;;4.22;3.60;;;;;;;23.31;51.94;99109.81;4905708;29;20478;-91
2022/08/06 05:40:42;;;;;;;7.78;4.18;;;;;;;23.42;51.80;99101.00;4906718;29;20041;-92
2022/08/06 05:43:07;;;;;;;7.22;3.95;;;;;;;23.47;51.55;99098.75;4902888;29;20491;-92
2022/08/06 05:45:33;;;;;;;6.50;3.63;;;;;;;23.61;51.10;99100.97;4872239;29;20032;-92
2022/08/06 05:47:59;;;;;;;6.60;3.50;;;;;;;23.75;50.28;99100.47;4877477;29;20410;-90
2022/08/06 05:50:28;;;;;;;5.57;4.63;;;;;;;24.00;49.22;99099.00;4921720;29;20557;-91
2022/08/06 05:53:16;;;;;;;6.30;5.00;;;;;;;24.11;48.61;99084.63;4890147;29;20020;-90
2022/08/06 05:55:54;;;;;;;6.82;4.72;;;;;;;24.25;48.82;99092.34;4924484;29;20043;-91
2022/08/06 05:58:33;;;;;;;8.73;4.47;;;;;;;24.32;49.52;99097.97;4923099;29;20414;-90
2022/08/06 06:01:19;;;;;;;6.15;5.55;;;;;;;24.25;48.57;99081.34;4907535;29;20038;-90
2022/08/06 06:03:44;;;;;;;8.85;4.78;;;;;;;24.36;48.83;99093.31;4917466;29;20123;-92
2022/08/06 06:06:10;;;;;;;7.85;4.45;;;;;;;24.56;47.67;99096.81;4886830;29;20044;-92
2022/08/06 06:08:36;;;;;;;6.40;4.22;;;;;;;24.63;47.34;99094.16;4886223;29;20123;-92
2022/08/06 06:11:10;;;;;;;11.40;4.40;;;;;;;24.79;47.18;99099.53;4886547;29;20470;-94
2022/08/06 06:13:35;;;;;;;8.15;4.40;;;;;;;24.92;46.68;99094.59;4902279;29;20036;-93
2022/08/06 06:16:24;;;;;;;7.55;4.72;;;;;;;24.97;47.20;99099.81;4901294;29;20042;-92
2022/08/06 06:19:15;;;;;;;9.90;7.55;;;;;;;24.82;47.88;99074.03;4901281;29;20040;-93
2022/08/06 06:22:04;;;;;;;10.55;8.20;;;;;;;25.10;47.85;99084.63;4871109;29;20087;-93
2022/08/06 06:24:37;;;;;;;11.25;8.93;;;;;;;25.28;46.84;99081.34;4885878;29;20135;-92
2022/08/06 06:27:15;;;;;;;11.35;8.35;;;;;;;25.30;47.42;99071.53;4885860;29;20042;-93
2022/08/06 06:29:58;;;;;;;10.18;8.05;;;;;;;25.47;46.15;99066.63;4883772;29;20037;-93
2022/08/06 06:32:39;;;;;;;13.18;9.30;;;;;;;25.94;46.12;99098.25;4899506;29;20024;-94
2022/08/06 06:35:32;;;;;;;13.18;9.90;;;;;;;26.09;45.21;99090.94;4912811;29;20115;-93
2022/08/06 06:38:30;;;;;;;11.10;9.20;;;;;;;26.07;45.60;99073.97;4887924;29;20036;-94
2022/08/06 06:41:04;;;;;;;16.02;10.38;;;;;;;26.37;45.53;99093.13;4919536;29;20024;-94
2022/08/06 06:43:40;;;;;;;15.13;9.60;;;;;;;26.62;43.98;99085.06;4902045;29;20028;-93
2022/08/06 06:46:26;;;;;;;15.50;8.82;;;;;;;26.71;43.47;99065.41;4902460;29;20227;-93
2022/08/06 06:48:54;;;;;;;12.10;8.63;;;;;;;26.97;42.70;99078.97;4889160;29;20028;-93
2022/08/06 06:51:28;;;;;;;8.40;6.45;;;;;;;27.19;41.32;99074.38;4872196;29;20499;-94
2022/08/06 06:53:55;;;;;;;10.23;6.65;;;;;;;27.39;41.07;99063.00;4888423;29;20088;-94
2022/08/06 06:56:31;;;;;;;6.78;5.47;;;;;;;27.59;41.18;99072.56;4871408;29;20032;-93
2022/08/06 06:59:15;;;;;;;6.05;4.60;;;;;;;27.71;39.76;99070.63;4903688;29;20035;-94
2022/08/06 07:01:40;;;;;;;7.32;4.72;;;;;;;27.78;39.74;99068.66;4877409;29;20068;-92
2022/08/06 07:04:08;;;;;;;6.40;4.38;;;;;;;27.82;39.66;99058.38;4871875;29;20065;-94
2022/08/06 07:06:35;;;;;;;8.13;4.40;;;;;;;27.97;39.36;99053.72;4886612;29;20024;-94
2022/08/06 07:09:00;;;;;;;10.10;5.32;;;;;;;28.03;39.41;99045.78;4887525;29;20055;-91
2022/08/06 07:11:26;;;;;;;8.35;5.82;;;;;;;28.30;39.35;99057.28;4886600;29;20028;-94
2022/08/06 07:13:54;;;;;;;5.78;4.57;;;;;;;28.39;38.80;99065.97;4871723;29;20047;-93
2022/08/06 07:16:23;;;;;;;8.38;4.70;;;;;;;28.45;40.27;99073.88;4872375;29;20032;-93
2022/08/06 07:18:49;;;;;;;6.35;4.90;;;;;;;28.50;39.70;99059.69;4902906;29;20024;-91
2022/08/06 07:21:16;;;;;;;6.78;4.50;;;;;;;28.47;38.83;99063.97;4901484;29;20071;-93
2022/08/06 07:23:43;;;;;;;4.88;3.97;;;;;;;28.64;39.51;99061.63;4886341;29;20096;-92
2022/08/06 07:26:09;;;;;;;6.82;3.35;;;;;;;28.78;38.56;99050.50;4883261;29;20198;-93
2022/08/06 07:28:35;;;;;;;4.28;3.15;;;;;;;28.87;38.27;99050.91;4868233;29;20044;-93
2022/08/06 07:31:02;;;;;;;5.32;3.42;;;;;;;28.83;38.48;99046.56;4870404;29;20039;-93
2022/08/06 07:33:28;;;;;;;4.60;3.00;;;;;;;29.04;37.32;99054.03;4887000;29;20024;-92
2022/08/06 07:35:54;;;;;;;7.13;3.20;;;;;;;29.10;37.86;99046.88;4870799;29;20031;-93
2022/08/06 07:38:20;;;;;;;4.57;3.67;;;;;;;29.16;37.61;99043.31;4902314;29;20107;-94
2022/08/06 07:40:50;;;;;;;3.20;2.45;;;;;;;28.98;36.86;99059.97;4901408;29;20046;-93
2022/08/06 07:43:19;;;;;;;5.00;2.83;;;;;;;28.86;37.58;99040.22;4870491;29;20092;-93
2022/08/06 07:45:45;;;;;;;5.72;3.25;;;;;;;29.16;38.01;99051.63;4883855;29;20092;-94
2022/08/06 07:48:12;;;;;;;3.55;2.83;;;;;;;29.32;37.88;99059.47;4866078;29;20028;-93
2022/08/06 07:50:39;;;;;;;3.95;2.72;;;;;;;29.45;36.81;99048.72;4885557;29;20071;-92
2022/08/06 07:53:04;;;;;;;3.03;2.47;;;;;;;29.54;36.39;99037.97;4871717;29;20020;-94
2022/08/06 07:55:31;;;;;;;3.50;2.40;;;;;;;29.80;35.05;99058.84;4885839;29;20043;-92
2022/08/06 07:57:59;;;;;;;3.40;2.72;;;;;;;29.89;34.52;99050.06;4870578;29;20102;-92
2022/08/06 08:00:26;;;;;;;3.33;2.60;;;;;;;30.00;34.70;99042.44;4886048;29;20024;-96
2022/08/06 08:08:21;;;;;;;2.20;2.00;;;;;;;30.22;33.97;99031.97;4893832;29;20031;-93
2022/08/06 08:10:46;;;;;;;3.83;2.47;;;;;;;30.22;33.09;99047.84;4904333;29;20028;-92
2022/08/06 08:13:14;;;;;;;5.00;2.70;;;;;;;30.29;33.30;99038.66;4889043;29;20075;-93
2022/08/06 08:15:40;;;;;;;4.45;2.40;;;;;;;30.34;33.12;99035.44;4889844;29;20064;-94
2022/08/06 08:18:05;;;;;;;4.15;2.60;;;;;;;30.47;33.45;99042.09;4873658;29;20096;-93
2022/08/06 08:20:31;;;;;;;4.13;2.65;;;;;;;30.50;34.32;99052.38;4873340;29;20119;-94
2022/08/06 08:22:57;;;;;;;5.53;2.45;;;;;;;30.46;33.88;99031.38;4873457;29;20027;-95
2022/08/06 08:25:22;;;;;;;3.75;2.63;;;;;;;30.49;33.40;99036.91;4873601;29;20139;-94
2022/08/06 08:27:48;;;;;;;4.03;2.53;;;;;;;30.42;33.73;99029.44;4889255;29;20056;-94
2022/08/06 08:30:13;;;;;;;2.70;2.33;;;;;;;30.33;33.39;99022.78;4873944;29;20458;-93
2022/08/06 08:32:39;;;;;;;3.95;2.60;;;;;;;30.16;33.78;99019.72;4873769;29;20039;-93
2022/08/06 08:35:05;;;;;;;4.25;2.70;;;;;;;30.19;33.16;99037.53;4873931;29;20126;-92
2022/08/06 08:37:30;;;;;;;3.00;2.30;;;;;;;30.00;33.48;99034.13;4873688;29;20033;-93
2022/08/06 08:39:56;;;;;;;6.32;2.58;;;;;;;30.22;34.48;99039.50;4874101;29;20024;-95
2022/08/06 08:42:32;;;;;;;3.60;2.78;;;;;;;30.40;33.56;99037.41;4873619;29;20502;-92
2022/08/06 08:44:57;;;;;;;3.85;2.40;;;;;;;30.26;33.23;99025.56;4875401;29;20040;-93
2022/08/06 08:47:25;;;;;;;2.88;2.33;;;;;;;30.44;33.49;99029.00;4874199;29;20175;-92
2022/08/06 08:49:52;;;;;;;2.90;2.20;;;;;;;30.31;33.43;99028.72;4889163;29;20395;-93
2022/08/06 08:52:27;;;;;;;4.03;2.65;;;;;;;30.43;34.01;99024.66;4889937;29;20088;-93
2022/08/06 08:54:55;;;;;;;5.43;2.53;;;;;;;30.50;33.53;99032.13;4873338;29;20024;-92
2022/08/06 08:57:26;;;;;;;3.95;2.60;;;;;;;30.51;33.96;99030.94;4873785;29;20043;-93
2022/08/06 08:59:51;;;;;;;5.43;2.80;;;;;;;30.35;33.74;99018.38;4889850;29;20100;-94
2022/08/06 09:02:20;;;;;;;5.05;2.42;;;;;;;30.43;33.67;99021.88;4903889;29;20396;-94
2022/08/06 09:04:45;;;;;;;4.05;2.80;;;;;;;30.50;34.23;99007.91;4889532;29;20398;-92
2022/08/06 09:07:11;;;;;;;5.95;2.60;;;;;;;30.73;33.84;99000.94;4874267;29;20021;-93
2022/08/06 09:09:38;;;;;;;4.88;2.40;;;;;;;30.88;33.00;99013.50;4904149;29;20043;-93
2022/08/06 09:12:07;;;;;;;6.28;3.45;;;;;;;30.89;33.34;99001.16;4872554;29;20130;-91
2022/08/06 09:14:33;;;;;;;4.82;3.00;;;;;;;31.01;33.74;98988.72;4888260;29;20554;-93
2022/08/06 09:16:59;;;;;;;3.17;2.50;;;;;;;31.10;33.10;98991.78;4888619;29;20036;-94
2022/08/06 09:19:29;;;;;;;3.17;2.53;;;;;;;30.97;33.40;98983.19;4888667;29;20032;-94
2022/08/06 09:21:57;;;;;;;3.55;2.72;;;;;;;31.12;32.75;98992.13;4873864;29;20133;-93
2022/08/06 09:24:23;;;;;;;4.10;2.58;;;;;;;31.37;33.39;99004.94;4903196;29;20447;-93
2022/08/06 09:27:04;;;;;;;3.70;2.70;;;;;;;31.58;32.39;98998.31;4887242;29;20028;-93
2022/08/06 09:29:30;;;;;;;3.22;2.70;;;;;;;31.38;32.72;98998.19;4920578;29;20036;-94
2022/08/06 09:32:04;;;;;;;3.47;2.35;;;;;;;31.54;32.35;98990.00;4903989;29;20082;-94
2022/08/06 09:34:37;;;;;;;3.67;2.35;;;;;;;31.47;32.42;98980.97;4873693;29;20136;-94
2022/08/06 09:37:02;;;;;;;4.07;2.80;;;;;;;31.39;32.79;98992.16;4904217;29;20120;-93
2022/08/06 09:39:40;;;;;;;3.30;2.42;;;;;;;31.65;32.58;99006.56;4887959;29;20039;-94
2022/08/06 09:42:06;;;;;;;5.18;2.50;;;;;;;31.61;32.21;99003.81;4889344;29;20042;-93
2022/08/06 09:44:32;;;;;;;3.63;2.42;;;;;;;31.45;31.63;98992.53;4920865;29;20035;-95
2022/08/06 09:46:59;;;;;;;2.90;2.40;;;;;;;31.40;32.43;98990.97;4873543;29;20415;-92
2022/08/06 09:49:25;;;;;;;2.83;2.10;;;;;;;31.49;32.19;98984.13;4889228;29;20064;-94
2022/08/06 09:51:51;;;;;;;2.72;2.28;;;;;;;31.51;31.97;98979.72;4872717;29;20040;-93
2022/08/06 09:54:16;;;;;;;2.92;2.42;;;;;;;31.74;31.58;98992.88;4872686;29;20398;-93
2022/08/06 09:56:45;;;;;;;5.93;2.75;;;;;;;31.85;31.21;98984.34;4919922;29;20491;-92
2022/08/06 09:59:14;;;;;;;3.67;2.40;;;;;;;31.67;30.91;98984.66;4888154;29;20050;-93
2022/08/06 10:01:46;;;;;;;5.10;2.70;;;;;;;31.68;31.76;98983.44;4888729;29;20035;-91
2022/08/06 10:04:23;;;;;;;3.60;2.55;;;;;;;31.68;31.12;98983.44;4873670;29;20506;-92
2022/08/06 10:06:53;;;;;;;3.90;2.17;;;;;;;31.79;31.11;98999.97;4887552;29;20032;-94
2022/08/06 10:09:19;;;;;;;4.18;2.72;;;;;;;31.79;31.29;98980.47;4903601;29;20541;-93
2022/08/06 10:11:44;;;;;;;6.05;2.80;;;;;;;32.03;31.05;98989.66;4888130;29;20031;-94
2022/08/06 10:14:30;;;;;;;2.75;2.30;;;;;;;31.94;30.62;98989.41;4886903;29;20186;-95
2022/08/06 10:17:06;;;;;;;4.43;2.25;;;;;;;32.10;30.33;98969.25;4871903;29;20035;-93
2022/08/06 10:19:31;;;;;;;3.05;2.20;;;;;;;32.25;30.45;98970.59;4887017;29;20032;-94
2022/08/06 10:22:06;;;;;;;3.55;2.38;;;;;;;32.16;30.86;98956.41;4871508;29;20035;-93
2022/08/06 10:24:32;;;;;;;4.60;2.17;;;;;;;32.44;30.30;98966.25;4887283;29;20056;-94
2022/08/06 10:26:58;;;;;;;3.65;2.40;;;;;;;32.44;30.40;98960.69;4902876;29;20099;-92
2022/08/06 10:29:23;;;;;;;8.65;2.92;;;;;;;32.35;30.39;98963.22;4901757;29;20028;-91
2022/08/06 10:31:49;;;;;;;2.63;2.10;;;;;;;32.10;29.99;98958.13;4872382;29;20036;-93
2022/08/06 10:34:20;;;;;;;3.78;2.28;;;;;;;31.85;30.65;98962.06;4871587;29;20047;-91
2022/08/06 10:37:02;;;;;;;3.70;2.33;;;;;;;31.91;30.16;98959.59;4870921;29;20032;-92
2022/08/06 10:39:31;;;;;;;2.72;2.25;;;;;;;31.97;30.05;98960.69;4888412;29;20028;-91
2022/08/06 10:41:56;;;;;;;4.05;2.60;;;;;;;31.81;30.62;98961.34;4871784;29;20032;-94
2022/08/06 10:44:22;;;;;;;4.07;2.45;;;;;;;31.89;30.48;98973.94;4871759;29;20048;-93
2022/08/06 10:46:49;;;;;;;4.38;2.40;;;;;;;31.87;30.61;98954.09;4872344;29;20182;-93
2022/08/06 10:49:15;;;;;;;2.13;1.85;;;;;;;31.96;30.28;98962.69;4887155;29;20406;-93
2022/08/06 10:51:41;;;;;;;3.33;2.08;;;;;;;31.87;30.12;98948.53;4870159;29;20088;-92
2022/08/06 10:54:06;;;;;;;4.05;2.75;;;;;;;32.10;30.03;98961.69;4886455;29;20055;-93
2022/08/06 10:56:32;;;;;;;2.97;2.67;;;;;;;32.30;29.31;98945.00;4871811;29;20030;-92
2022/08/06 10:58:57;;;;;;;2.63;2.15;;;;;;;32.18;29.88;98938.06;4870953;29;20667;-91
2022/08/06 11:01:37;;;;;;;3.65;2.38;;;;;;;32.68;29.56;98946.72;4871193;29;20514;-94
2022/08/06 11:04:10;;;;;;;4.20;2.35;;;;;;;32.49;29.44;98946.25;4902802;29;20032;-93
2022/08/06 11:07:09;;;;;;;3.22;2.10;;;;;;;32.61;29.22;98950.44;4901766;29;20028;-92
2022/08/06 11:09:37;;;;;;;3.53;2.30;;;;;;;32.70;29.23;98950.63;4918729;29;20028;-93
2022/08/06 11:12:31;;;;;;;3.08;2.10;;;;;;;32.68;29.50;98936.34;4901306;29;20079;-94
2022/08/06 11:14:57;;;;;;;2.17;1.67;;;;;;;32.68;28.82;98943.91;4888354;29;20024;-92
2022/08/06 11:17:22;;;;;;;2.97;2.47;;;;;;;32.69;28.98;98932.34;4870551;29;20024;-92
2022/08/06 11:19:50;;;;;;;3.13;2.22;;;;;;;32.75;28.83;98943.78;4885461;29;20506;-92
2022/08/06 11:22:35;;;;;;;3.10;2.20;;;;;;;32.90;28.55;98944.28;4918918;29;20099;-93
2022/08/06 11:25:02;;;;;;;3.00;2.08;;;;;;;32.66;29.00;98932.41;4885758;29;20063;-91
2022/08/06 11:27:53;;;;;;;5.68;2.42;;;;;;;32.76;28.80;98950.94;4871020;29;20024;-94
2022/08/06 11:30:19;;;;;;;3.28;2.20;;;;;;;32.80;28.52;98937.69;4886980;29;20110;-92
2022/08/06 11:32:46;;;;;;;2.90;2.28;;;;;;;32.82;28.54;98926.91;4870609;29;20027;-93
2022/08/06 11:35:34;;;;;;;6.38;2.97;;;;;;;32.96;28.66;98951.69;4901148;29;20111;-95
2022/08/06 11:38:03;;;;;;;6.47;3.35;;;;;;;32.52;28.75;98927.88;4900546;29;20566;-92
2022/08/06 11:41:01;;;;;;;4.50;2.60;;;;;;;32.71;28.89;98929.13;4871192;29;20035;-94
2022/08/06 11:43:47;;;;;;;3.13;2.25;;;;;;;32.92;27.95;98920.31;4885356;29;20092;-93
2022/08/06 11:46:26;;;;;;;5.90;2.72;;;;;;;33.10;28.15;98938.69;4886674;29;20451;-95